createdAt,value
2023-03-23T15:58:28.561Z,18.90
2023-03-23T16:01:40.584Z,18.90
2023-03-23T16:04:49.875Z,18.88
2023-03-23T16:07:52.880Z,18.78
2023-03-23T16:11:05.923Z,18.68
2023-03-23T16:14:11.691Z,18.58
2023-03-23T16:17:27.709Z,18.43
2023-03-23T16:20:39.204Z,18.26
2023-03-23T16:23:46.355Z,18.11
2023-03-23T16:26:52.081Z,17.93
2023-03-23T16:30:06.850Z,17.79
2023-03-23T16:33:10.843Z,17.64
2023-03-23T16:36:16.344Z,17.53
2023-03-23T16:39:27.102Z,17.35
2023-03-23T16:42:42.769Z,17.27
2023-03-23T16:46:09.598Z,17.13
2023-03-23T16:49:14.415Z,16.96
2023-03-23T16:52:29.827Z,16.65
2023-03-23T16:55:41.260Z,16.48
2023-03-23T16:59:10.510Z,16.28
2023-03-23T17:02:23.634Z,16.11
2023-03-23T17:05:30.114Z,15.93
2023-03-23T17:08:40.629Z,15.85
2023-03-23T17:11:47.706Z,15.75
2023-03-23T17:15:00.729Z,15.63
2023-03-23T17:18:04.860Z,15.49
2023-03-23T17:21:20.815Z,15.36
2023-03-23T17:24:34.720Z,15.30
2023-03-23T17:27:46.793Z,15.20
2023-03-23T17:30:52.635Z,15.10
2023-03-23T17:34:02.682Z,15.04
2023-03-23T17:37:17.498Z,14.93
2023-03-23T17:40:32.683Z,14.78
2023-03-23T17:43:43.631Z,14.68
2023-03-23T17:46:47.417Z,14.58
2023-03-23T17:49:58.684Z,14.50
2023-03-23T17:53:09.568Z,14.43
2023-03-23T17:56:18.609Z,14.37
2023-03-23T17:59:37.509Z,14.26
2023-03-23T18:02:54.753Z,14.20
2023-03-23T18:06:13.629Z,14.06
2023-03-23T18:09:24.516Z,13.92
2023-03-23T18:12:30.105Z,13.86
2023-03-23T18:15:46.712Z,13.97
2023-03-23T18:18:50.848Z,14.03
2023-03-23T18:22:00.658Z,13.99
2023-03-23T18:25:11.628Z,13.98
2023-03-23T18:28:14.819Z,13.97
2023-03-23T18:31:27.750Z,13.91
2023-03-23T18:34:34.066Z,13.96
2023-03-23T18:37:54.638Z,13.93
2023-03-23T18:41:10.641Z,13.92
2023-03-23T18:44:32.541Z,13.91
2023-03-23T18:47:38.584Z,13.85
2023-03-23T18:51:05.511Z,13.80
2023-03-23T18:54:14.707Z,13.75
2023-03-23T18:57:24.623Z,13.70
2023-03-23T19:00:35.619Z,13.61
2023-03-23T19:03:52.683Z,13.49
2023-03-23T19:06:57.933Z,13.32
2023-03-23T19:10:07.647Z,13.20
2023-03-23T19:13:17.400Z,13.14
2023-03-23T19:16:31.198Z,13.13
2023-03-23T19:19:39.666Z,13.11
2023-03-23T19:22:53.065Z,13.05
2023-03-23T19:25:58.949Z,12.99
2023-03-23T19:29:25.162Z,12.94
2023-03-23T19:32:34.906Z,12.85
2023-03-23T19:36:05.248Z,12.82
2023-03-23T19:39:19.674Z,12.72
2023-03-23T19:42:26.637Z,12.62
2023-03-23T19:45:31.683Z,12.57
2023-03-23T19:48:42.759Z,12.50
2023-03-23T19:51:49.286Z,12.52
2023-03-23T19:55:01.557Z,12.50
2023-03-23T19:58:19.836Z,12.43
2023-03-23T20:01:30.716Z,12.36
2023-03-23T20:04:46.175Z,12.27
2023-03-23T20:07:57.360Z,12.15
2023-03-23T20:11:05.779Z,12.07
2023-03-23T20:14:19.640Z,12.05
2023-03-23T20:17:22.583Z,11.97
2023-03-23T20:20:26.853Z,11.91
2023-03-23T20:23:30.841Z,11.85
2023-03-23T20:26:43.755Z,11.77
2023-03-23T20:29:56.221Z,11.69
2023-03-23T20:33:05.658Z,11.64
2023-03-23T20:36:20.675Z,11.58
2023-03-23T20:39:31.778Z,11.55
2023-03-23T20:42:44.180Z,11.60
2023-03-23T20:45:59.513Z,11.58
2023-03-23T20:49:06.685Z,11.65
2023-03-23T20:52:11.933Z,11.60
2023-03-23T20:55:20.764Z,11.47
2023-03-23T20:58:27.558Z,11.34
2023-03-23T21:01:45.656Z,11.27
2023-03-23T21:04:55.153Z,11.26
2023-03-23T21:07:58.550Z,11.19
2023-03-23T21:11:19.560Z,11.25
2023-03-23T21:14:38.962Z,11.31
2023-03-23T21:17:43.634Z,11.31
2023-03-23T21:20:47.861Z,11.23
2023-03-23T21:23:53.546Z,11.18
2023-03-23T21:27:05.475Z,11.10
2023-03-23T21:30:11.096Z,11.04
2023-03-23T21:33:16.657Z,11.06
2023-03-23T21:36:28.830Z,11.03
2023-03-23T21:39:33.670Z,10.92
2023-03-23T21:42:36.499Z,10.86
2023-03-23T21:45:45.565Z,10.77
2023-03-23T21:48:54.568Z,10.67
2023-03-23T21:52:03.951Z,10.57
2023-03-23T21:55:15.764Z,10.52
2023-03-23T21:58:28.342Z,10.45
2023-03-23T22:01:40.906Z,10.34
2023-03-23T22:04:45.591Z,10.24
2023-03-23T22:07:52.594Z,10.14
2023-03-23T22:11:12.525Z,10.03
2023-03-23T22:14:16.441Z,9.93
2023-03-23T22:17:22.727Z,9.83
2023-03-23T22:20:26.783Z,9.75
2023-03-23T22:23:35.621Z,9.62
2023-03-23T22:26:38.793Z,9.52
2023-03-23T22:29:43.281Z,9.41
2023-03-23T22:32:50.452Z,9.27
2023-03-23T22:35:56.310Z,9.28
2023-03-23T22:39:01.563Z,9.28
2023-03-23T22:42:05.354Z,9.28
2023-03-23T22:45:10.598Z,9.30
2023-03-23T22:48:31.545Z,9.32
2023-03-23T22:51:42.796Z,9.30
2023-03-23T22:54:48.140Z,9.29
2023-03-23T22:57:51.186Z,9.28
2023-03-23T23:01:00.713Z,9.28
2023-03-23T23:04:07.626Z,9.25
2023-03-23T23:07:15.590Z,9.25
2023-03-23T23:10:18.948Z,9.26
2023-03-23T23:13:23.436Z,9.25
2023-03-23T23:16:27.717Z,9.24
2023-03-23T23:19:32.388Z,9.25
2023-03-23T23:22:35.900Z,9.20
2023-03-23T23:25:41.691Z,9.18
2023-03-23T23:28:48.579Z,9.05
2023-03-23T23:31:52.362Z,9.01
2023-03-23T23:34:56.725Z,8.96
2023-03-23T23:37:59.870Z,8.96
2023-03-23T23:41:05.985Z,8.99
2023-03-23T23:44:08.701Z,8.94
2023-03-23T23:47:11.604Z,8.82
2023-03-23T23:50:15.513Z,8.78
2023-03-23T23:53:22.911Z,8.73
2023-03-23T23:56:29.866Z,8.73
2023-03-23T23:59:32.551Z,8.60
